Terminal Aerodrome Forecast
Issued by NWS

Home | Current Version | Previous Version | Graphics & Text | Print | Product List | Glossary On
Versions: 1 2 3 4 5 6 7 8 9 10 11 12 13 14 15 16 17 18 19 20 21 22 23 24 25
000
FTUS45 KGGW 250000 AAA
TAFOLF
TAF AMD
KOLF 250011Z 2500/2524 29030G50KT P6SM TSRA SCT040CB BKN080CB
     FM250200 30025G35KT P6SM VCTS BKN080CB
     FM250400 31011KT P6SM FEW120
     FM251500 26015G25KT P6SM FEW190=

USA.gov is the U.S. government's official web portal to all federal, state and local government web resources and services.